Time;durP1;ratioP1;P1;durP2;ratioP2;P2;SDS_P1;SDS_P2;PMS_P1;PMS_P2;Temp;Humidity;BMP_temperature;BMP_pressure;BME280_temperature;BME280_humidity;BME280_pressure;Samples;Min_cycle;Max_cycle;Signal;HPM_P1;HPM_P2
2023/04/23 00:02:10;;;;;;;11.80;7.30;;;19.30;86.00;;;;;;4994485;28;20038;-68
2023/04/23 00:04:37;;;;;;;13.98;7.90;;;;;;;;;;4995430;28;20058;-68
2023/04/23 00:07:03;;;;;;;13.77;8.40;;;19.50;86.10;;;;;;5006867;28;20515;-67
2023/04/23 00:09:30;;;;;;;12.25;7.78;;;19.50;86.10;;;;;;5013490;28;20077;-68
2023/04/23 00:11:57;;;;;;;10.95;6.68;;;19.40;86.00;;;;;;5014232;28;20061;-68
2023/04/23 00:14:22;;;;;;;10.60;7.68;;;19.60;86.10;;;;;;5013914;28;20558;-68
2023/04/23 00:16:48;;;;;;;10.35;7.15;;;19.30;85.80;;;;;;5003381;28;20058;-67
2023/04/23 00:19:14;;;;;;;12.20;8.15;;;19.50;85.90;;;;;;5007409;28;20054;-68
2023/04/23 00:21:40;;;;;;;11.95;7.60;;;19.40;86.00;;;;;;5012082;28;20087;-68
2023/04/23 00:24:06;;;;;;;10.95;7.30;;;19.30;83.40;;;;;;5013652;28;20125;-67
2023/04/23 00:26:32;;;;;;;9.98;7.13;;;19.40;85.80;;;;;;5012103;28;20428;-68
2023/04/23 00:28:58;;;;;;;11.43;8.00;;;;;;;;;;5013303;28;20121;-67
2023/04/23 00:31:25;;;;;;;12.10;8.02;;;19.20;83.40;;;;;;5011889;28;20049;-68
2023/04/23 00:33:52;;;;;;;11.57;7.72;;;19.20;85.60;;;;;;5012796;28;20050;-67
2023/04/23 00:36:18;;;;;;;10.75;7.38;;;;;;;;;;5010850;28;20054;-68
2023/04/23 00:38:44;;;;;;;11.13;8.05;;;19.10;85.40;;;;;;5013843;28;20463;-68
2023/04/23 00:41:10;;;;;;;10.30;7.43;;;;;;;;;;5010239;28;20081;-68
2023/04/23 00:43:36;;;;;;;12.07;7.18;;;19.20;85.10;;;;;;5010925;28;20126;-68
2023/04/23 00:46:02;;;;;;;11.35;7.47;;;19.20;82.90;;;;;;5011872;28;20042;-68
2023/04/23 00:48:28;;;;;;;12.25;7.53;;;19.40;81.60;;;;;;5012225;28;20099;-68
2023/04/23 00:51:04;;;;;;;10.77;7.18;;;19.20;80.60;;;;;;5003644;28;20050;-70
2023/04/23 00:53:29;;;;;;;11.05;7.68;;;19.30;85.50;;;;;;5012075;28;20045;-68
2023/04/23 00:55:55;;;;;;;14.00;8.43;;;19.30;85.20;;;;;;5008122;28;20054;-68
2023/04/23 00:58:21;;;;;;;10.50;7.22;;;19.20;85.50;;;;;;4995650;28;20085;-67
2023/04/23 01:00:48;;;;;;;12.23;7.38;;;;;;;;;;5011799;28;20119;-68
2023/04/23 01:03:17;;;;;;;11.30;8.48;;;18.90;85.30;;;;;;5010973;28;20041;-68
2023/04/23 01:05:42;;;;;;;12.02;8.00;;;19.30;85.50;;;;;;5009326;28;20500;-68
2023/04/23 01:08:10;;;;;;;10.77;8.07;;;19.30;83.90;;;;;;4994766;28;20046;-67
2023/04/23 01:10:36;;;;;;;11.60;8.07;;;19.00;85.30;;;;;;4995851;28;20046;-68
2023/04/23 01:13:02;;;;;;;11.65;8.35;;;19.20;85.40;;;;;;5010782;28;20125;-68
2023/04/23 01:15:28;;;;;;;14.23;8.60;;;19.10;85.30;;;;;;4994174;28;20065;-68
2023/04/23 01:17:53;;;;;;;12.88;9.13;;;18.90;85.20;;;;;;5010913;28;20099;-68
2023/04/23 01:20:19;;;;;;;11.45;8.27;;;19.20;85.30;;;;;;5000772;28;20046;-68
2023/04/23 01:22:45;;;;;;;12.07;9.10;;;19.10;83.00;;;;;;5008203;28;20050;-67
2023/04/23 01:25:11;;;;;;;12.15;8.43;;;;;;;;;;5010441;28;20050;-66
2023/04/23 01:27:37;;;;;;;11.52;8.80;;;19.20;85.30;;;;;;5009404;28;20046;-68
2023/04/23 01:30:04;;;;;;;12.63;8.88;;;19.00;85.20;;;;;;5012962;28;20038;-68
2023/04/23 01:32:31;;;;;;;12.45;9.05;;;19.40;82.20;;;;;;4993584;28;20119;-68
2023/04/23 01:34:57;;;;;;;13.05;8.85;;;;;;;;;;5012921;28;20072;-68
2023/04/23 01:37:23;;;;;;;12.32;8.95;;;;;;;;;;5009495;28;20042;-68
2023/04/23 01:39:49;;;;;;;15.27;11.32;;;;;;;;;;5010738;28;20046;-68
2023/04/23 01:42:15;;;;;;;12.75;9.88;;;;;;;;;;5011364;28;20080;-67
2023/04/23 01:44:41;;;;;;;13.10;9.57;;;19.30;85.30;;;;;;5011261;28;20062;-68
2023/04/23 01:47:07;;;;;;;13.65;9.85;;;;;;;;;;5007672;28;20691;-68
2023/04/23 01:49:33;;;;;;;13.55;9.80;;;;;;;;;;5009073;28;20054;-67
2023/04/23 01:51:59;;;;;;;16.38;11.32;;;;;;;;;;5012820;28;20373;-67
2023/04/23 01:54:25;;;;;;;14.20;10.27;;;19.20;85.30;;;;;;5012369;28;20052;-67
2023/04/23 01:56:53;;;;;;;18.50;11.80;;;;;;;;;;5012610;28;20136;-66
2023/04/23 01:59:22;;;;;;;15.73;11.10;;;19.20;83.80;;;;;;4998090;28;20121;-67
2023/04/23 02:01:48;;;;;;;15.57;11.48;;;19.30;85.30;;;;;;4992534;28;20058;-67
2023/04/23 02:04:15;;;;;;;15.77;11.40;;;18.80;85.00;;;;;;5010936;28;20077;-68
2023/04/23 02:06:41;;;;;;;17.20;12.05;;;19.20;81.60;;;;;;5011292;28;20133;-67
2023/04/23 02:09:07;;;;;;;15.80;11.68;;;18.90;84.80;;;;;;5010392;28;20125;-68
2023/04/23 02:11:33;;;;;;;16.42;11.10;;;19.00;85.10;;;;;;5010015;28;20448;-69
2023/04/23 02:13:59;;;;;;;15.25;11.02;;;18.90;85.00;;;;;;5012544;28;20038;-68
2023/04/23 02:16:27;;;;;;;16.50;11.48;;;19.20;85.20;;;;;;5007268;28;20061;-68
2023/04/23 02:18:54;;;;;;;17.00;11.38;;;19.20;85.00;;;;;;4996860;28;20046;-67
2023/04/23 02:21:20;;;;;;;16.08;11.32;;;19.00;80.80;;;;;;5012200;28;20069;-68
2023/04/23 02:23:46;;;;;;;16.00;11.48;;;;;;;;;;5011697;28;20050;-66
2023/04/23 02:26:12;;;;;;;15.30;11.18;;;19.00;85.00;;;;;;5010795;28;20046;-67
2023/04/23 02:28:37;;;;;;;16.83;12.00;;;19.10;81.60;;;;;;5009521;28;20050;-66
2023/04/23 02:31:03;;;;;;;16.75;11.57;;;19.20;85.10;;;;;;5009874;28;20393;-68
2023/04/23 02:33:29;;;;;;;15.18;11.45;;;19.10;84.90;;;;;;5008967;28;20479;-66
2023/04/23 02:35:55;;;;;;;15.98;11.55;;;;;;;;;;5011324;28;20046;-66
2023/04/23 02:38:21;;;;;;;17.05;11.27;;;;;;;;;;4992753;28;20456;-67
2023/04/23 02:40:47;;;;;;;16.88;12.07;;;19.10;85.10;;;;;;5006659;28;20077;-68
2023/04/23 02:43:13;;;;;;;15.57;11.10;;;;;;;;;;5009754;28;20093;-66
2023/04/23 02:45:39;;;;;;;16.30;11.50;;;18.90;84.90;;;;;;4994206;28;20130;-68
2023/04/23 02:48:05;;;;;;;14.80;11.63;;;19.00;85.00;;;;;;5005800;28;20145;-65
2023/04/23 02:50:30;;;;;;;16.15;11.80;;;19.00;84.90;;;;;;5006685;28;20042;-68
2023/04/23 02:52:56;;;;;;;17.45;11.60;;;19.10;85.00;;;;;;5014998;28;20045;-68
2023/04/23 02:55:24;;;;;;;16.35;11.65;;;19.00;84.90;;;;;;5015294;28;20049;-68
2023/04/23 02:57:50;;;;;;;17.15;11.80;;;18.90;84.80;;;;;;5013385;28;20057;-66
2023/04/23 03:00:16;;;;;;;16.80;11.30;;;19.00;81.40;;;;;;5009681;28;20045;-65
2023/04/23 03:02:42;;;;;;;16.75;11.90;;;18.70;82.40;;;;;;5014564;28;20056;-66
2023/04/23 03:05:08;;;;;;;16.27;12.45;;;18.90;84.70;;;;;;5015274;28;20496;-68
2023/04/23 03:07:34;;;;;;;17.58;11.50;;;19.00;81.40;;;;;;5006157;28;20049;-68
2023/04/23 03:10:00;;;;;;;17.08;12.07;;;18.90;83.10;;;;;;5012234;28;20077;-68
2023/04/23 03:12:25;;;;;;;17.27;12.77;;;18.80;84.70;;;;;;5015323;28;20034;-68
2023/04/23 03:14:51;;;;;;;16.67;12.13;;;;;;;;;;5015229;28;20042;-66
2023/04/23 03:17:17;;;;;;;16.13;11.77;;;18.80;84.70;;;;;;5013246;28;20049;-68
2023/04/23 03:19:43;;;;;;;18.55;12.02;;;18.90;82.80;;;;;;5013163;28;20117;-68
2023/04/23 03:22:09;;;;;;;16.80;11.95;;;18.70;84.40;;;;;;5014508;28;20141;-66
2023/04/23 03:24:35;;;;;;;16.25;11.65;;;;;;;;;;5008674;28;20057;-67
2023/04/23 03:27:00;;;;;;;16.92;11.77;;;18.90;84.70;;;;;;5014903;28;20053;-66
2023/04/23 03:29:27;;;;;;;15.38;11.45;;;18.80;84.70;;;;;;5015038;28;20046;-68
2023/04/23 03:31:52;;;;;;;15.73;12.23;;;18.70;84.60;;;;;;5009847;28;20508;-68
2023/04/23 03:34:18;;;;;;;14.95;11.40;;;18.60;84.60;;;;;;4995114;28;20081;-68
2023/04/23 03:36:47;;;;;;;17.13;12.63;;;;;;;;;;5010723;28;20197;-65
2023/04/23 03:39:13;;;;;;;17.25;12.45;;;19.00;84.70;;;;;;5014788;28;20085;-68
2023/04/23 03:41:39;;;;;;;20.77;13.25;;;;;;;;;;5012617;28;20053;-67
2023/04/23 03:44:06;;;;;;;17.83;12.75;;;;;;;;;;5014223;28;20057;-66
2023/04/23 03:46:31;;;;;;;17.38;13.13;;;18.80;84.50;;;;;;5014409;28;20524;-67
2023/04/23 03:48:58;;;;;;;17.75;13.00;;;18.40;84.30;;;;;;5013142;28;20042;-67
2023/04/23 03:51:26;;;;;;;21.63;13.93;;;;;;;;;;5012245;28;20125;-68
2023/04/23 03:53:51;;;;;;;17.25;12.73;;;18.70;84.40;;;;;;5012600;28;20038;-68
2023/04/23 03:56:17;;;;;;;18.65;12.45;;;18.30;84.20;;;;;;5013089;28;20042;-68
2023/04/23 03:58:43;;;;;;;17.42;12.90;;;18.60;81.00;;;;;;5013063;28;20041;-68
2023/04/23 04:01:09;;;;;;;16.83;13.25;;;18.60;84.30;;;;;;5013985;28;20049;-67
2023/04/23 04:03:35;;;;;;;18.05;12.95;;;18.70;84.40;;;;;;5011312;28;20582;-68
2023/04/23 04:06:01;;;;;;;19.23;13.73;;;18.70;84.40;;;;;;5012112;28;20042;-68
2023/04/23 04:08:28;;;;;;;19.23;13.75;;;18.50;83.90;;;;;;5004994;28;20144;-64
2023/04/23 04:10:54;;;;;;;17.92;13.30;;;18.60;84.30;;;;;;4994677;28;20042;-68
2023/04/23 04:13:20;;;;;;;19.13;13.43;;;18.70;84.00;;;;;;5008422;28;20162;-68
2023/04/23 04:15:46;;;;;;;18.88;13.63;;;;;;;;;;4999100;28;20046;-66
2023/04/23 04:18:12;;;;;;;18.73;13.70;;;18.20;84.00;;;;;;5010275;28;20045;-67
2023/04/23 04:20:38;;;;;;;18.42;13.55;;;;;;;;;;5012817;28;20430;-65
2023/04/23 04:23:05;;;;;;;21.98;14.98;;;;;;;;;;5008846;28;20076;-67
2023/04/23 04:25:31;;;;;;;21.45;15.55;;;;;;;;;;5013735;28;20044;-66
2023/04/23 04:27:57;;;;;;;21.20;15.52;;;18.50;84.10;;;;;;5013693;28;20046;-67
2023/04/23 04:30:23;;;;;;;21.65;14.82;;;18.40;81.10;;;;;;5013601;28;20113;-68
2023/04/23 04:32:49;;;;;;;18.33;13.70;;;;;;;;;;5001341;28;20058;-67
2023/04/23 04:35:16;;;;;;;20.80;15.65;;;;;;;;;;5002225;28;20060;-68
2023/04/23 04:37:43;;;;;;;19.08;14.18;;;18.30;81.80;;;;;;5010511;28;20136;-68
2023/04/23 04:40:10;;;;;;;19.65;13.55;;;18.50;83.30;;;;;;5013486;28;20431;-68
2023/04/23 04:42:38;;;;;;;18.65;13.93;;;18.30;84.30;;;;;;5011917;28;20061;-65
2023/04/23 04:45:04;;;;;;;17.90;14.10;;;18.20;80.30;;;;;;5012501;28;20492;-67
2023/04/23 04:47:31;;;;;;;19.23;13.43;;;18.60;84.50;;;;;;5010715;28;20112;-66
2023/04/23 04:49:58;;;;;;;19.15;12.82;;;18.50;84.40;;;;;;5001931;28;20081;-67
2023/04/23 04:52:24;;;;;;;18.13;12.82;;;18.30;83.10;;;;;;5010292;28;20038;-68
2023/04/23 04:54:50;;;;;;;20.55;12.65;;;;;;;;;;5012412;28;20045;-68
2023/04/23 04:57:16;;;;;;;17.85;12.77;;;18.40;82.90;;;;;;5012012;28;20113;-66
2023/04/23 04:59:42;;;;;;;17.08;12.40;;;18.40;84.20;;;;;;5011374;28;20192;-67
2023/04/23 05:02:07;;;;;;;18.17;13.52;;;18.20;80.90;;;;;;5012399;28;20052;-66
2023/04/23 05:04:33;;;;;;;20.50;14.45;;;;;;;;;;5011191;28;20074;-67
2023/04/23 05:06:59;;;;;;;21.42;14.95;;;18.40;83.20;;;;;;4996358;28;20042;-66
2023/04/23 05:09:26;;;;;;;19.58;14.40;;;;;;;;;;4999812;28;20100;-66
2023/04/23 05:11:52;;;;;;;22.08;15.45;;;;;;;;;;5012512;28;20391;-68
2023/04/23 05:14:18;;;;;;;21.80;15.95;;;18.50;83.20;;;;;;5010167;28;20054;-68
2023/04/23 05:16:43;;;;;;;23.52;16.05;;;18.40;83.90;;;;;;5007831;28;20048;-65
2023/04/23 05:19:10;;;;;;;23.60;16.45;;;;;;;;;;5011651;28;20232;-66
2023/04/23 05:21:35;;;;;;;22.50;16.42;;;18.50;80.60;;;;;;5012810;28;20046;-65
2023/04/23 05:24:01;;;;;;;21.58;15.43;;;;;;;;;;4986933;28;20072;-68
2023/04/23 05:26:28;;;;;;;23.05;16.52;;;;;;;;;;5012145;28;20464;-66
2023/04/23 05:28:54;;;;;;;23.02;17.00;;;18.60;83.90;;;;;;5011672;28;20048;-67
2023/04/23 05:31:20;;;;;;;24.05;16.88;;;;;;;;;;5012750;28;20136;-66
2023/04/23 05:33:46;;;;;;;24.20;16.23;;;18.50;83.80;;;;;;5010169;28;20042;-66
2023/04/23 05:36:12;;;;;;;26.52;17.48;;;18.60;83.90;;;;;;5012937;28;20041;-66
2023/04/23 05:38:37;;;;;;;26.23;17.33;;;18.70;83.90;;;;;;5010196;28;20383;-68
2023/04/23 05:41:03;;;;;;;22.77;16.65;;;18.70;83.90;;;;;;4999537;28;20531;-67
2023/04/23 05:43:29;;;;;;;24.85;18.50;;;;;;;;;;4991766;28;20522;-67
2023/04/23 05:45:55;;;;;;;24.13;18.00;;;;;;;;;;5012045;28;20052;-68
2023/04/23 05:48:21;;;;;;;27.13;19.70;;;18.60;83.80;;;;;;5006873;28;20053;-67
2023/04/23 05:50:48;;;;;;;27.23;19.70;;;18.70;80.50;;;;;;4993207;28;20046;-67
2023/04/23 05:53:14;;;;;;;25.58;19.90;;;;;;;;;;4992837;28;20046;-67
2023/04/23 05:55:40;;;;;;;28.13;20.05;;;18.60;83.80;;;;;;5006508;28;20077;-68
2023/04/23 05:58:06;;;;;;;28.50;21.23;;;;;;;;;;4998942;28;20082;-65
2023/04/23 06:00:34;;;;;;;26.23;19.88;;;18.30;83.60;;;;;;5010920;28;20088;-67
2023/04/23 06:02:59;;;;;;;26.83;20.98;;;18.50;83.60;;;;;;5010267;28;20054;-66
2023/04/23 06:05:25;;;;;;;27.38;20.25;;;18.80;83.90;;;;;;5003415;28;20045;-66
2023/04/23 06:07:51;;;;;;;29.15;21.92;;;;;;;;;;5011272;28;20050;-66
2023/04/23 06:10:17;;;;;;;28.92;21.65;;;18.60;81.50;;;;;;5011907;28;20092;-68
2023/04/23 06:12:43;;;;;;;29.27;21.45;;;;;;;;;;5004570;28;20050;-67
2023/04/23 06:15:10;;;;;;;29.80;22.38;;;18.80;83.80;;;;;;5002170;28;20038;-68
2023/04/23 06:17:36;;;;;;;27.63;21.63;;;18.70;83.70;;;;;;4998149;28;20419;-67
2023/04/23 06:20:02;;;;;;;31.55;23.25;;;18.80;83.60;;;;;;5010123;28;20045;-67
2023/04/23 06:22:28;;;;;;;34.38;24.85;;;18.70;82.60;;;;;;5007306;28;20048;-68
2023/04/23 06:24:54;;;;;;;31.33;23.95;;;18.70;81.10;;;;;;4999799;28;20054;-68
2023/04/23 06:27:20;;;;;;;31.90;23.23;;;18.60;83.70;;;;;;4999081;28;20169;-68
2023/04/23 06:29:45;;;;;;;33.53;24.58;;;18.70;83.70;;;;;;5015226;28;20053;-67
2023/04/23 06:32:11;;;;;;;31.00;23.17;;;18.70;83.80;;;;;;5011677;28;20049;-68
2023/04/23 06:34:37;;;;;;;32.45;23.67;;;;;;;;;;5012313;28;20128;-68
2023/04/23 06:37:03;;;;;;;32.58;24.38;;;18.60;83.70;;;;;;5015996;28;20215;-68
2023/04/23 06:39:29;;;;;;;33.28;23.55;;;;;;;;;;5015673;28;20476;-62
2023/04/23 06:41:56;;;;;;;34.70;24.80;;;18.90;83.80;;;;;;5013876;28;20058;-62
2023/04/23 06:44:23;;;;;;;33.95;24.85;;;;;;;;;;5014714;28;20053;-63
2023/04/23 06:46:49;;;;;;;34.72;25.05;;;;;;;;;;5013169;28;20088;-63
2023/04/23 06:49:15;;;;;;;34.03;25.00;;;19.00;82.10;;;;;;5011673;28;20058;-64
2023/04/23 06:51:41;;;;;;;34.65;23.88;;;18.70;83.60;;;;;;5013640;28;20112;-62
2023/04/23 06:54:07;;;;;;;37.22;27.20;;;19.00;83.80;;;;;;5014146;28;20092;-62
2023/04/23 06:56:32;;;;;;;33.60;24.27;;;18.80;83.60;;;;;;5015356;28;20082;-65
2023/04/23 06:58:59;;;;;;;33.10;24.90;;;;;;;;;;5006632;28;20054;-68
2023/04/23 07:01:24;;;;;;;35.80;25.48;;;19.20;83.40;;;;;;5015342;28;20504;-68
2023/04/23 07:03:53;;;;;;;33.08;24.48;;;19.30;83.40;;;;;;5012967;28;20108;-65
2023/04/23 07:06:19;;;;;;;33.97;24.10;;;;;;;;;;5015110;28;20061;-66
2023/04/23 07:08:45;;;;;;;33.70;24.70;;;19.40;83.10;;;;;;5012850;28;20060;-61
2023/04/23 07:11:11;;;;;;;32.80;25.40;;;19.20;80.10;;;;;;5013073;28;20042;-62
2023/04/23 07:13:37;;;;;;;35.55;26.75;;;19.70;83.10;;;;;;5014311;28;20069;-62
2023/04/23 07:16:03;;;;;;;34.85;25.83;;;;;;;;;;5014310;28;20446;-62
2023/04/23 07:18:29;;;;;;;33.17;25.02;;;;;;;;;;5015061;28;20042;-65
2023/04/23 07:20:55;;;;;;;34.55;26.25;;;19.80;82.60;;;;;;5013043;28;20046;-63
2023/04/23 07:23:21;;;;;;;33.38;25.35;;;20.00;82.50;;;;;;4998452;28;20129;-61
2023/04/23 07:25:47;;;;;;;35.70;25.67;;;;;;;;;;5015144;28;20042;-62
2023/04/23 07:28:13;;;;;;;36.78;26.58;;;20.30;82.30;;;;;;5014999;28;20057;-62
2023/04/23 07:30:39;;;;;;;33.53;25.92;;;20.30;82.10;;;;;;5012462;28;20042;-63
2023/04/23 07:33:04;;;;;;;35.03;26.30;;;20.50;82.20;;;;;;5014892;28;20490;-63
2023/04/23 07:35:30;;;;;;;35.53;26.98;;;20.50;79.80;;;;;;5012724;28;20042;-67
2023/04/23 07:37:56;;;;;;;35.15;26.83;;;20.50;81.70;;;;;;5011822;28;20157;-67
2023/04/23 07:40:22;;;;;;;34.08;25.70;;;20.70;81.80;;;;;;5003286;28;20508;-67
2023/04/23 07:42:49;;;;;;;37.85;26.45;;;20.40;81.50;;;;;;5012406;28;20136;-66
2023/04/23 07:45:15;;;;;;;35.13;27.20;;;21.00;81.70;;;;;;5014505;28;20527;-62
2023/04/23 07:47:41;;;;;;;33.95;25.98;;;;;;;;;;5011663;28;20045;-67
2023/04/23 07:50:07;;;;;;;35.22;26.60;;;21.00;81.40;;;;;;5013764;28;20049;-62
2023/04/23 07:52:33;;;;;;;32.03;24.52;;;20.80;78.20;;;;;;5002214;28;20117;-63
2023/04/23 07:54:59;;;;;;;35.60;26.45;;;21.30;81.40;;;;;;5010433;28;20124;-65
2023/04/23 07:57:24;;;;;;;32.65;24.40;;;21.10;81.30;;;;;;5000706;28;20041;-63
2023/04/23 07:59:51;;;;;;;31.70;24.35;;;;;;;;;;5005756;28;20074;-65
2023/04/23 08:02:17;;;;;;;31.58;23.73;;;21.30;80.50;;;;;;5003214;28;20046;-65
2023/04/23 08:04:43;;;;;;;31.02;23.23;;;21.20;81.10;;;;;;5006020;28;20064;-64
2023/04/23 08:07:08;;;;;;;31.98;23.83;;;21.60;81.10;;;;;;5003652;28;20046;-64
2023/04/23 08:09:34;;;;;;;34.47;23.23;;;21.20;80.80;;;;;;5010523;28;20499;-62
2023/04/23 08:12:00;;;;;;;31.95;23.02;;;21.60;81.00;;;;;;5011227;28;20476;-63
2023/04/23 08:14:26;;;;;;;29.98;22.75;;;21.30;81.00;;;;;;4994474;28;20085;-62
2023/04/23 08:16:52;;;;;;;28.95;22.10;;;21.40;78.20;;;;;;5009039;28;20124;-62
2023/04/23 08:19:18;;;;;;;29.27;22.77;;;21.30;81.10;;;;;;5007557;28;20042;-62
2023/04/23 08:21:43;;;;;;;29.80;22.77;;;21.50;81.20;;;;;;5012885;28;20046;-62
2023/04/23 08:24:09;;;;;;;30.02;22.35;;;21.50;81.10;;;;;;5012814;28;20056;-63
2023/04/23 08:26:35;;;;;;;27.92;21.38;;;21.60;81.10;;;;;;5013709;28;20037;-63
2023/04/23 08:29:01;;;;;;;26.95;21.80;;;21.60;81.00;;;;;;5009505;28;20049;-62
2023/04/23 08:31:28;;;;;;;27.30;21.13;;;;;;;;;;4994086;28;20046;-65
2023/04/23 08:33:54;;;;;;;27.10;21.30;;;21.70;81.00;;;;;;4998248;28;20121;-63
2023/04/23 08:36:20;;;;;;;26.33;20.55;;;21.70;80.80;;;;;;5009344;28;20124;-62
2023/04/23 08:38:45;;;;;;;25.40;19.65;;;21.90;80.90;;;;;;5013582;28;20054;-63
2023/04/23 08:41:13;;;;;;;27.40;21.02;;;21.80;80.80;;;;;;5012246;28;20132;-64
2023/04/23 08:43:58;;;;;;;26.50;20.58;;;21.80;75.90;;;;;;5010786;28;20136;-63
2023/04/23 08:46:24;;;;;;;25.00;19.95;;;22.00;78.20;;;;;;5007501;28;20161;-64
2023/04/23 08:48:51;;;;;;;24.67;20.48;;;21.70;80.60;;;;;;5012084;28;20080;-65
2023/04/23 08:51:17;;;;;;;25.55;19.73;;;21.90;80.70;;;;;;5011553;28;20451;-63
2023/04/23 08:53:44;;;;;;;25.40;20.30;;;;;;;;;;5013409;28;20045;-65
2023/04/23 08:56:11;;;;;;;24.15;19.88;;;21.90;79.80;;;;;;5013498;28;20098;-63
2023/04/23 08:58:37;;;;;;;24.85;19.40;;;21.80;80.70;;;;;;5010535;28;20045;-62
2023/04/23 09:01:03;;;;;;;24.58;19.05;;;22.00;77.80;;;;;;5013494;28;20443;-64
2023/04/23 09:03:29;;;;;;;24.02;19.65;;;;;;;;;;5008705;28;20447;-64
2023/04/23 09:05:55;;;;;;;25.58;19.10;;;22.10;80.60;;;;;;4992344;28;20047;-62
2023/04/23 09:08:21;;;;;;;22.75;18.25;;;22.30;80.90;;;;;;5009339;28;20053;-65
2023/04/23 09:10:47;;;;;;;25.83;19.75;;;22.30;80.90;;;;;;5013135;28;20207;-63
2023/04/23 09:13:12;;;;;;;24.60;19.35;;;22.10;80.80;;;;;;4996518;28;20057;-64
2023/04/23 09:15:44;;;;;;;27.40;20.42;;;22.10;80.90;;;;;;4993382;28;20488;-62
2023/04/23 09:18:10;;;;;;;24.13;19.85;;;22.30;80.90;;;;;;5004753;28;20053;-65
2023/04/23 09:20:36;;;;;;;26.52;20.25;;;22.10;80.90;;;;;;5007368;28;20046;-64
2023/04/23 09:23:05;;;;;;;25.65;21.15;;;22.00;81.00;;;;;;5002581;28;20053;-62
2023/04/23 09:25:31;;;;;;;26.98;21.65;;;22.00;80.90;;;;;;5010329;28;20049;-65
2023/04/23 09:27:57;;;;;;;25.10;20.40;;;22.20;81.30;;;;;;4985024;28;20050;-61
2023/04/23 09:30:25;;;;;;;23.83;19.02;;;22.00;81.30;;;;;;5007812;28;20112;-64
2023/04/23 09:32:51;;;;;;;26.85;20.35;;;21.90;81.00;;;;;;5005658;28;20455;-66
2023/04/23 09:35:18;;;;;;;24.20;19.85;;;22.00;81.60;;;;;;5004903;28;20038;-63
2023/04/23 09:37:48;;;;;;;25.45;19.95;;;22.00;81.60;;;;;;5004701;28;20124;-61
2023/04/23 09:40:18;;;;;;;25.20;19.35;;;21.90;81.70;;;;;;5006513;28;20077;-65
2023/04/23 09:42:54;;;;;;;23.17;18.92;;;21.90;81.80;;;;;;5009201;28;20112;-63
2023/04/23 09:45:20;;;;;;;23.70;17.85;;;22.20;81.90;;;;;;5011408;28;20171;-63
2023/04/23 09:47:53;;;;;;;22.15;18.58;;;22.00;77.40;;;;;;5010830;28;20161;-66
2023/04/23 09:50:30;;;;;;;23.48;18.10;;;21.80;81.80;;;;;;5012899;28;20046;-69
2023/04/23 09:52:56;;;;;;;21.63;17.23;;;;;;;;;;5012791;28;20061;-69
2023/04/23 09:55:34;;;;;;;21.23;17.30;;;22.20;81.90;;;;;;5000032;28;20070;-64
2023/04/23 09:58:02;;;;;;;21.30;17.25;;;22.20;81.80;;;;;;5005408;28;20054;-64
2023/04/23 10:00:29;;;;;;;20.30;16.45;;;;;;;;;;5008227;28;20580;-66
2023/04/23 10:02:55;;;;;;;19.48;15.05;;;22.00;81.80;;;;;;4999651;28;20785;-66
2023/04/23 10:05:21;;;;;;;23.17;15.93;;;22.10;82.00;;;;;;5016384;28;20134;-64
2023/04/23 10:07:50;;;;;;;20.65;15.02;;;22.00;82.10;;;;;;5015844;28;20107;-64
2023/04/23 10:10:16;;;;;;;19.45;15.85;;;21.60;82.00;;;;;;5016472;28;20046;-66
2023/04/23 10:12:42;;;;;;;18.35;15.02;;;21.50;82.10;;;;;;5013888;28;20046;-63
2023/04/23 10:15:09;;;;;;;16.52;14.02;;;21.70;82.40;;;;;;5016169;28;20045;-66
2023/04/23 10:17:35;;;;;;;17.60;13.57;;;21.90;82.70;;;;;;5016203;28;20055;-63
2023/04/23 10:20:01;;;;;;;17.60;13.48;;;21.40;82.40;;;;;;5015379;28;20088;-63
2023/04/23 10:22:28;;;;;;;17.92;13.27;;;21.80;79.40;;;;;;5009546;28;20435;-63
2023/04/23 10:24:54;;;;;;;18.05;13.07;;;21.70;82.50;;;;;;5015065;28;20046;-62
2023/04/23 10:27:20;;;;;;;16.88;12.00;;;21.80;82.60;;;;;;5014992;28;20361;-63
2023/04/23 10:29:46;;;;;;;17.48;12.10;;;21.80;82.60;;;;;;5008242;28;20049;-66
2023/04/23 10:32:12;;;;;;;14.57;11.27;;;21.70;82.50;;;;;;5009688;28;20567;-63
2023/04/23 10:34:38;;;;;;;16.80;11.63;;;21.80;82.60;;;;;;4990107;28;20045;-67
2023/04/23 10:37:03;;;;;;;14.30;11.05;;;21.70;82.50;;;;;;4995053;28;20046;-65
2023/04/23 10:39:31;;;;;;;14.20;10.32;;;22.00;82.60;;;;;;5001702;28;20050;-65
2023/04/23 10:41:57;;;;;;;14.45;10.70;;;21.90;82.60;;;;;;5007694;28;20078;-65
2023/04/23 10:44:38;;;;;;;15.48;10.57;;;21.90;82.40;;;;;;5012200;28;20068;-64
2023/04/23 10:47:04;;;;;;;13.10;9.23;;;21.80;78.40;;;;;;4997362;28;20239;-65
2023/04/23 10:49:31;;;;;;;12.85;8.82;;;22.10;78.70;;;;;;5003456;28;20034;-63
2023/04/23 10:51:59;;;;;;;12.52;8.57;;;21.90;82.30;;;;;;5004583;28;20064;-63
2023/04/23 10:54:28;;;;;;;14.75;8.68;;;21.80;82.10;;;;;;5004633;28;20480;-62
2023/04/23 10:57:01;;;;;;;12.02;8.38;;;23.10;81.40;;;;;;5014213;28;20062;-64
2023/04/23 10:59:29;;;;;;;16.00;8.30;;;22.40;82.30;;;;;;4995109;28;20121;-63
2023/04/23 11:02:08;;;;;;;12.63;8.48;;;22.10;79.30;;;;;;5006030;28;20455;-68
2023/04/23 11:04:34;;;;;;;15.68;7.85;;;22.20;82.00;;;;;;5004471;28;20048;-65
2023/04/23 11:07:07;;;;;;;12.95;7.55;;;22.10;81.70;;;;;;4995576;28;20385;-63
2023/04/23 11:09:40;;;;;;;10.13;7.18;;;22.20;82.20;;;;;;4995881;28;20054;-66
2023/04/23 11:12:07;;;;;;;11.13;6.65;;;22.20;79.00;;;;;;4994240;28;20105;-65
2023/04/23 11:14:35;;;;;;;12.30;7.03;;;22.40;82.30;;;;;;4996461;28;20050;-62
2023/04/23 11:17:05;;;;;;;10.25;6.60;;;22.20;82.20;;;;;;5015042;28;20041;-67
2023/04/23 11:19:35;;;;;;;9.93;6.32;;;22.30;82.30;;;;;;5009867;28;20120;-62
2023/04/23 11:22:05;;;;;;;10.82;6.75;;;21.90;82.10;;;;;;4994497;28;20046;-64
2023/04/23 11:24:41;;;;;;;12.13;6.18;;;22.20;82.20;;;;;;4995120;28;20058;-65
2023/04/23 11:27:11;;;;;;;11.02;5.93;;;22.20;80.90;;;;;;5011471;28;20046;-64
2023/04/23 11:29:38;;;;;;;8.45;5.32;;;22.40;82.30;;;;;;5010950;28;20125;-65
2023/04/23 11:32:09;;;;;;;9.05;5.47;;;;;;;;;;4995279;28;20464;-65
2023/04/23 11:34:44;;;;;;;8.57;5.15;;;22.30;82.20;;;;;;4995058;28;20050;-63
2023/04/23 11:37:11;;;;;;;9.50;5.00;;;22.40;78.30;;;;;;5004057;28;20056;-70
2023/04/23 11:39:37;;;;;;;9.15;5.00;;;22.10;81.80;;;;;;5013391;28;20073;-65
2023/04/23 11:42:05;;;;;;;6.68;4.28;;;22.30;81.90;;;;;;4994542;28;20487;-65
2023/04/23 11:44:31;;;;;;;12.48;4.55;;;22.30;81.90;;;;;;5003418;28;20104;-65
2023/04/23 11:47:00;;;;;;;9.68;4.53;;;22.30;81.90;;;;;;5013561;28;20145;-65
2023/04/23 11:49:26;;;;;;;8.15;4.57;;;22.20;81.80;;;;;;5013110;28;20050;-66
2023/04/23 11:51:51;;;;;;;9.50;4.65;;;22.30;81.80;;;;;;5012741;28;20069;-64
2023/04/23 11:54:18;;;;;;;7.30;3.92;;;22.40;81.90;;;;;;5003388;28;20084;-66
2023/04/23 11:56:44;;;;;;;7.18;4.38;;;22.40;81.80;;;;;;4994911;28;20049;-63
2023/04/23 11:59:10;;;;;;;10.73;4.82;;;22.50;81.80;;;;;;5004643;28;20096;-64
2023/04/23 12:01:43;;;;;;;9.07;3.65;;;22.50;76.90;;;;;;5007725;28;20046;-65
2023/04/23 12:04:10;;;;;;;5.80;3.30;;;22.40;81.50;;;;;;5009405;28;20054;-63
2023/04/23 12:06:36;;;;;;;7.85;3.90;;;22.40;81.40;;;;;;4994898;28;20081;-67
2023/04/23 12:09:02;;;;;;;8.57;3.38;;;;;;;;;;5003360;28;20042;-69
2023/04/23 12:11:28;;;;;;;6.47;2.95;;;22.60;81.40;;;;;;5002690;28;20492;-67
2023/04/23 12:13:54;;;;;;;5.75;3.25;;;22.60;81.30;;;;;;4995119;28;20112;-65
2023/04/23 12:16:33;;;;;;;6.60;3.33;;;22.40;81.00;;;;;;5010743;28;20046;-66
2023/04/23 12:18:59;;;;;;;6.53;2.60;;;22.60;81.00;;;;;;5005653;28;20081;-66
2023/04/23 12:21:27;;;;;;;6.93;2.72;;;22.60;80.90;;;;;;4986423;28;20053;-66
2023/04/23 12:23:53;;;;;;;9.73;3.33;;;;;;;;;;5012052;28;20050;-65
2023/04/23 12:26:19;;;;;;;5.70;2.60;;;22.40;80.60;;;;;;5012192;28;20048;-65
2023/04/23 12:28:55;;;;;;;6.10;3.05;;;22.70;80.80;;;;;;4999312;28;20046;-64
2023/04/23 12:31:26;;;;;;;5.43;2.90;;;22.60;80.60;;;;;;4994352;28;20054;-64
2023/04/23 12:34:01;;;;;;;5.70;2.50;;;22.70;80.70;;;;;;4994135;28;20082;-63
2023/04/23 12:36:28;;;;;;;5.55;2.42;;;22.60;80.60;;;;;;5010619;28;20046;-65
2023/04/23 12:38:54;;;;;;;4.93;2.47;;;22.60;80.60;;;;;;5012565;28;20065;-66
2023/04/23 12:41:20;;;;;;;7.30;2.58;;;22.70;80.60;;;;;;4996199;28;20492;-65
2023/04/23 12:43:47;;;;;;;8.88;2.78;;;22.60;80.50;;;;;;5013238;28;20630;-67
2023/04/23 12:46:13;;;;;;;6.50;2.60;;;22.70;80.50;;;;;;5007795;28;20435;-66
2023/04/23 12:48:39;;;;;;;4.80;2.30;;;22.70;80.50;;;;;;5001859;28;20081;-66